createdAt,value
2022-08-03T00:01:37.283Z,99234.25
2022-08-03T00:04:07.969Z,99229.84
2022-08-03T00:06:37.172Z,99234.94
2022-08-03T00:09:07.214Z,99227.28
2022-08-03T00:11:34.994Z,99237.22
2022-08-03T00:14:02.422Z,99246.84
2022-08-03T00:16:29.660Z,99245.25
2022-08-03T00:18:56.983Z,99248.34
2022-08-03T00:21:24.174Z,99244.75
2022-08-03T00:23:52.862Z,99225.78
2022-08-03T00:26:22.117Z,99239.00
2022-08-03T00:28:50.224Z,99233.75
2022-08-03T00:31:19.720Z,99242.56
2022-08-03T00:33:59.117Z,99242.13
2022-08-03T00:36:27.105Z,99236.03
2022-08-03T00:38:54.447Z,99244.50
2022-08-03T00:41:21.765Z,99245.78
2022-08-03T00:43:49.016Z,99246.63
2022-08-03T00:46:20.800Z,99239.41
2022-08-03T00:48:50.299Z,99237.00
2022-08-03T00:51:18.957Z,99237.09
2022-08-03T00:53:46.767Z,99242.28
2022-08-03T00:56:15.846Z,99234.28
2022-08-03T00:58:45.118Z,99245.47
2022-08-03T01:01:12.917Z,99250.38
2022-08-03T01:03:40.901Z,99249.94
2022-08-03T01:06:25.659Z,99233.03
2022-08-03T01:09:02.771Z,99253.03
2022-08-03T01:11:59.844Z,99240.59
2022-08-03T01:14:38.219Z,99235.66
2022-08-03T01:17:15.234Z,99234.38
2022-08-03T01:19:56.563Z,99242.38
2022-08-03T01:22:52.298Z,99236.25
2022-08-03T01:25:40.449Z,99231.00
2022-08-03T01:28:34.505Z,99238.25
2022-08-03T01:31:05.676Z,99230.16
2022-08-03T01:33:40.985Z,99237.34
2022-08-03T01:36:14.661Z,99235.78
2022-08-03T01:38:55.651Z,99242.91
2022-08-03T01:41:29.476Z,99244.03
2022-08-03T01:44:30.182Z,99238.81
2022-08-03T01:46:50.071Z,99228.00
2022-08-03T01:49:18.349Z,99240.84
2022-08-03T01:51:58.647Z,99244.06
2022-08-03T01:54:37.189Z,99239.31
2022-08-03T01:57:05.287Z,99250.22
2022-08-03T01:59:35.970Z,99243.00
2022-08-03T02:02:16.024Z,99246.22
2022-08-03T02:04:56.591Z,99243.00
2022-08-03T02:07:26.265Z,99248.72
2022-08-03T02:09:55.739Z,99244.19
2022-08-03T02:12:25.766Z,99242.81
2022-08-03T02:15:15.403Z,99246.19
2022-08-03T02:17:45.995Z,99244.59
2022-08-03T02:20:14.113Z,99245.78
2022-08-03T02:22:43.270Z,99254.03
2022-08-03T02:25:12.446Z,99249.97
2022-08-03T02:28:02.128Z,99252.88
2022-08-03T02:30:38.608Z,99249.16
2022-08-03T02:33:11.192Z,99245.53
2022-08-03T02:35:41.279Z,99248.38
2022-08-03T02:38:11.566Z,99256.78
2022-08-03T02:40:43.461Z,99253.88
2022-08-03T02:43:16.603Z,99258.22
2022-08-03T02:45:48.102Z,99246.63
2022-08-03T02:48:23.545Z,99258.22
2022-08-03T02:50:54.297Z,99248.53
2022-08-03T02:53:24.158Z,99252.88
2022-08-03T02:55:52.661Z,99254.88
2022-08-03T02:58:24.078Z,99250.75
2022-08-03T03:00:52.341Z,99253.97
2022-08-03T03:03:21.293Z,99260.34
2022-08-03T03:05:54.740Z,99252.34
2022-08-03T03:08:28.817Z,99248.72
2022-08-03T03:10:59.997Z,99177.97
2022-08-03T03:13:29.312Z,99259.56
2022-08-03T03:16:00.538Z,99263.63
2022-08-03T03:18:28.460Z,99255.53
2022-08-03T03:20:56.586Z,99258.75
2022-08-03T03:23:26.470Z,99266.75
2022-08-03T03:25:56.392Z,99262.34
2022-08-03T03:28:24.970Z,99260.31
2022-08-03T03:30:53.448Z,99272.00
2022-08-03T03:33:22.754Z,99283.38
2022-08-03T03:35:51.926Z,99278.97
2022-08-03T03:38:19.999Z,99277.34
2022-08-03T03:40:47.747Z,99263.72
2022-08-03T03:43:15.460Z,99282.94
2022-08-03T03:45:43.656Z,99283.59
2022-08-03T03:48:11.441Z,99290.03
2022-08-03T03:50:41.839Z,99278.97
2022-08-03T03:53:11.171Z,99262.00
2022-08-03T03:55:58.953Z,99288.09
2022-08-03T03:58:26.246Z,99278.00
2022-08-03T04:00:54.197Z,99289.72
2022-08-03T04:03:21.483Z,99295.72
2022-08-03T04:06:07.486Z,99291.13
2022-08-03T04:08:53.671Z,99294.41
2022-08-03T04:11:29.102Z,99293.97
2022-08-03T04:14:04.071Z,99305.63
2022-08-03T04:16:35.299Z,99302.50
2022-08-03T04:19:08.330Z,99291.66
2022-08-03T04:21:40.659Z,99297.13
2022-08-03T04:24:11.197Z,99306.84
2022-08-03T04:26:41.812Z,99303.28
2022-08-03T04:29:12.125Z,99299.00
2022-08-03T04:31:41.077Z,99299.81
2022-08-03T04:34:08.715Z,99306.72
2022-08-03T04:36:40.133Z,99306.44
2022-08-03T04:39:12.335Z,99298.06
2022-08-03T04:42:07.693Z,99300.19
2022-08-03T04:44:30.604Z,99290.59
2022-08-03T04:46:58.843Z,99310.72
2022-08-03T04:49:27.550Z,99307.56
2022-08-03T04:51:55.043Z,99320.09
2022-08-03T04:54:22.202Z,99297.72
2022-08-03T04:56:49.501Z,99309.03
2022-08-03T04:59:18.014Z,99305.91
2022-08-03T05:01:45.470Z,99315.63
2022-08-03T05:04:12.977Z,99312.09
2022-08-03T05:06:48.073Z,99318.59
2022-08-03T05:09:48.920Z,99320.63
2022-08-03T05:12:10.655Z,99332.31
2022-08-03T05:14:39.040Z,99325.97
2022-08-03T05:17:06.890Z,99328.47
2022-08-03T05:19:36.399Z,99322.88
2022-08-03T05:22:03.675Z,99324.88
2022-08-03T05:24:31.206Z,99328.91
2022-08-03T05:27:00.230Z,99341.34
2022-08-03T05:29:27.497Z,99334.91
2022-08-03T05:31:57.639Z,99337.34
2022-08-03T05:34:25.563Z,99336.53
2022-08-03T05:36:52.764Z,99339.31
2022-08-03T05:39:20.560Z,99327.69
2022-08-03T05:41:48.396Z,99344.91
2022-08-03T05:44:17.931Z,99337.28
2022-08-03T05:46:45.555Z,99328.47
2022-08-03T05:49:13.065Z,99333.25
2022-08-03T05:51:41.237Z,99345.69
2022-08-03T05:54:09.100Z,99349.28
2022-08-03T05:56:36.543Z,99353.28
2022-08-03T05:59:28.780Z,99349.56
2022-08-03T06:01:53.301Z,99350.75
2022-08-03T06:04:20.854Z,99347.53
2022-08-03T06:06:49.191Z,99353.09
2022-08-03T06:09:17.826Z,99361.09
2022-08-03T06:11:45.038Z,99356.66
2022-08-03T06:14:13.281Z,99346.19
2022-08-03T06:16:40.793Z,99360.16
2022-08-03T06:19:08.888Z,99358.09
2022-08-03T06:21:36.091Z,99352.03
2022-08-03T06:24:07.440Z,99360.09
2022-08-03T06:26:35.698Z,99347.00
2022-08-03T06:29:03.928Z,99345.31
2022-08-03T06:31:32.902Z,99352.88
2022-08-03T06:34:34.056Z,99346.41
2022-08-03T06:36:52.502Z,99346.25
2022-08-03T06:39:20.712Z,99342.91
2022-08-03T06:41:51.781Z,99351.63
2022-08-03T06:44:18.787Z,99349.44
2022-08-03T06:46:46.023Z,99346.97
2022-08-03T06:49:13.744Z,99359.47
2022-08-03T06:52:03.249Z,99363.72
2022-08-03T06:54:32.931Z,99348.44
2022-08-03T06:57:01.156Z,99350.75
2022-08-03T07:00:10.294Z,99341.34
2022-08-03T07:02:19.058Z,99353.69
2022-08-03T07:04:50.614Z,99344.66
2022-08-03T07:07:19.555Z,99339.63
2022-08-03T07:09:56.979Z,99349.59
2022-08-03T07:12:30.140Z,99335.84
2022-08-03T07:15:01.244Z,99335.63
2022-08-03T07:17:34.096Z,99343.09
2022-08-03T07:20:03.886Z,99342.06
2022-08-03T07:22:31.393Z,99341.47
2022-08-03T07:24:59.292Z,99348.53
2022-08-03T07:27:30.491Z,99343.97
2022-08-03T07:29:58.980Z,99341.88
2022-08-03T07:32:26.849Z,99343.47
2022-08-03T07:34:58.442Z,99347.41
2022-08-03T07:37:29.041Z,99338.00
2022-08-03T07:39:56.374Z,99339.59
2022-08-03T07:42:24.174Z,99347.53
2022-08-03T07:44:51.543Z,99340.63
2022-08-03T07:47:34.936Z,99346.97
2022-08-03T07:50:04.738Z,99341.19
2022-08-03T07:52:50.773Z,99353.09
2022-08-03T07:55:23.010Z,99351.81
2022-08-03T07:58:22.040Z,99355.78
2022-08-03T08:00:53.174Z,99355.06
2022-08-03T08:03:22.175Z,99351.16
2022-08-03T08:05:49.591Z,99355.56
2022-08-03T08:08:16.877Z,99342.50
2022-08-03T08:10:58.273Z,99359.06
2022-08-03T08:13:26.196Z,99360.16
2022-08-03T08:15:53.237Z,99365.31
2022-08-03T08:18:20.794Z,99348.03
2022-08-03T08:20:48.044Z,99364.66
2022-08-03T08:23:41.709Z,99356.44
2022-08-03T08:26:02.923Z,99367.69
2022-08-03T08:28:33.644Z,99358.56
2022-08-03T08:31:01.870Z,99360.72
2022-08-03T08:33:42.474Z,99361.59
2022-08-03T08:36:16.827Z,99355.78
2022-08-03T08:38:45.235Z,99360.69
2022-08-03T08:41:14.551Z,99373.69
2022-08-03T08:43:43.256Z,99363.16
2022-08-03T08:46:23.737Z,99358.56
2022-08-03T08:48:54.620Z,99357.16
2022-08-03T08:51:22.786Z,99360.59
2022-08-03T08:53:53.930Z,99367.13
2022-08-03T08:56:25.596Z,99357.31
2022-08-03T08:58:58.184Z,99360.34
2022-08-03T09:01:25.708Z,99363.84
2022-08-03T09:03:54.281Z,99346.91
2022-08-03T09:06:23.020Z,99351.34
2022-08-03T09:08:50.355Z,99358.38
2022-08-03T09:11:22.219Z,99353.94
2022-08-03T09:14:35.297Z,99350.03
2022-08-03T09:17:04.072Z,99337.19
2022-08-03T09:19:32.431Z,99344.09
2022-08-03T09:22:20.526Z,99338.22
2022-08-03T09:25:22.953Z,99323.41
2022-08-03T09:27:46.858Z,99331.56
2022-08-03T09:30:34.705Z,99349.50
2022-08-03T09:33:04.777Z,99342.56
2022-08-03T09:38:24.273Z,99345.50
2022-08-03T09:40:55.912Z,99342.59
2022-08-03T09:43:27.612Z,99329.28
2022-08-03T09:46:04.331Z,99319.53
2022-08-03T09:48:36.933Z,99320.53
2022-08-03T09:51:14.227Z,99325.47
2022-08-03T09:53:58.564Z,99331.88
2022-08-03T09:56:42.748Z,99321.38
2022-08-03T09:59:11.905Z,99329.44
2022-08-03T10:01:43.031Z,99320.69
2022-08-03T10:04:17.200Z,99319.25
2022-08-03T10:06:46.518Z,99304.59
2022-08-03T10:09:16.582Z,99303.75
2022-08-03T10:11:47.006Z,99305.13
2022-08-03T10:14:23.605Z,99312.84
2022-08-03T10:16:51.036Z,99313.66
2022-08-03T10:19:18.265Z,99299.78
2022-08-03T10:21:54.078Z,99297.81
2022-08-03T10:24:26.491Z,99302.09
2022-08-03T10:27:00.500Z,99304.91
2022-08-03T10:29:29.661Z,99310.53
2022-08-03T10:31:59.560Z,99297.72
2022-08-03T10:34:29.467Z,99286.09
2022-08-03T10:37:00.274Z,99292.00
2022-08-03T10:39:29.037Z,99288.25
2022-08-03T10:41:59.784Z,99268.31
2022-08-03T10:44:37.708Z,99286.50
2022-08-03T10:47:05.733Z,99283.53
2022-08-03T10:49:35.335Z,99304.88
2022-08-03T10:52:12.974Z,99285.47
2022-08-03T10:55:11.111Z,99291.25
2022-08-03T10:57:59.100Z,99264.78
2022-08-03T11:00:30.422Z,99275.00
2022-08-03T11:03:11.359Z,99280.47
2022-08-03T11:05:49.508Z,99226.97
2022-08-03T11:08:37.781Z,99280.09
2022-08-03T11:11:18.033Z,99276.81
2022-08-03T11:14:12.978Z,99277.00
2022-08-03T11:16:46.815Z,99273.03
2022-08-03T11:19:22.769Z,99261.09
2022-08-03T11:21:56.699Z,99268.03
2022-08-03T11:24:43.815Z,99263.72
2022-08-03T11:27:25.315Z,99249.63
2022-08-03T11:30:08.058Z,99241.50
2022-08-03T11:32:38.546Z,99249.34
2022-08-03T11:35:19.117Z,99250.31
2022-08-03T11:38:04.330Z,99244.06
2022-08-03T11:40:37.290Z,99248.28
2022-08-03T11:43:07.645Z,99235.88
2022-08-03T11:45:36.669Z,99238.94
2022-08-03T11:48:15.854Z,99237.19
2022-08-03T11:50:45.677Z,99237.41
2022-08-03T11:53:17.214Z,99232.75
2022-08-03T11:55:48.989Z,99227.78
2022-08-03T11:59:10.904Z,99219.38
2022-08-03T12:01:11.545Z,99211.22
2022-08-03T12:03:38.646Z,99225.19
2022-08-03T12:06:11.639Z,99216.78
2022-08-03T12:08:39.793Z,99227.50
2022-08-03T12:11:09.086Z,99219.16
2022-08-03T12:14:10.683Z,99214.97
2022-08-03T12:16:38.610Z,99202.13
2022-08-03T12:19:09.292Z,99214.88
2022-08-03T12:21:56.941Z,99222.03
2022-08-03T12:24:28.447Z,99193.38
2022-08-03T12:27:00.089Z,99211.31
2022-08-03T12:29:28.143Z,99208.84
2022-08-03T12:31:56.319Z,99209.50
2022-08-03T12:34:23.945Z,99207.78
2022-08-03T12:36:59.810Z,99209.63
2022-08-03T12:39:30.979Z,99206.69
2022-08-03T12:41:59.137Z,99209.75
2022-08-03T12:44:35.032Z,99196.69
2022-08-03T12:47:04.665Z,99187.13
2022-08-03T12:49:49.476Z,99190.75
2022-08-03T12:52:18.568Z,99185.41
2022-08-03T12:55:00.361Z,99195.63
2022-08-03T12:57:41.984Z,99193.31
2022-08-03T13:00:29.653Z,99189.22
2022-08-03T13:05:54.954Z,99193.03
2022-08-03T13:08:24.215Z,99192.78
2022-08-03T13:10:52.372Z,99192.41
2022-08-03T13:13:20.841Z,99191.25
2022-08-03T13:15:48.392Z,99181.47
2022-08-03T13:18:17.462Z,99186.09
2022-08-03T13:20:44.902Z,99192.53
2022-08-03T13:23:15.461Z,99180.88
2022-08-03T13:25:55.946Z,99186.25
2022-08-03T13:28:24.309Z,99182.84
2022-08-03T13:30:51.725Z,99181.88
2022-08-03T13:33:19.233Z,99190.47
2022-08-03T13:35:46.733Z,99182.00
2022-08-03T13:38:15.397Z,99189.63
2022-08-03T13:40:46.067Z,99185.66
2022-08-03T13:43:17.216Z,99172.94
2022-08-03T13:45:49.488Z,99170.56
2022-08-03T13:48:36.219Z,99183.13
2022-08-03T13:51:22.274Z,99176.78
2022-08-03T13:53:52.675Z,99166.44
2022-08-03T13:56:20.148Z,99171.03
2022-08-03T13:58:47.794Z,99166.97
2022-08-03T14:01:15.056Z,99165.78
2022-08-03T14:03:42.339Z,99158.53
2022-08-03T14:06:09.767Z,99168.63
2022-08-03T14:08:37.127Z,99161.25
2022-08-03T14:11:04.480Z,99170.38
2022-08-03T14:13:31.541Z,99179.41
2022-08-03T14:15:58.977Z,99160.13
2022-08-03T14:18:27.812Z,99163.63
2022-08-03T14:21:05.823Z,99161.56
2022-08-03T14:23:35.398Z,99169.63
2022-08-03T14:26:03.159Z,99157.97
2022-08-03T14:28:30.533Z,99162.31
2022-08-03T14:30:58.365Z,99155.88
2022-08-03T14:33:26.355Z,99168.44
2022-08-03T14:35:53.859Z,99165.50
2022-08-03T14:38:21.697Z,99172.03
2022-08-03T14:40:49.053Z,99173.44
2022-08-03T14:43:18.742Z,99154.88
2022-08-03T14:45:46.113Z,99163.94
2022-08-03T14:50:28.728Z,99164.41
2022-08-03T14:51:01.552Z,99166.81
2022-08-03T14:53:29.587Z,99158.25
2022-08-03T14:55:57.514Z,99153.88
2022-08-03T14:58:26.807Z,99147.63
2022-08-03T15:00:55.305Z,99156.88
2022-08-03T15:03:25.141Z,99149.63
2022-08-03T15:05:57.196Z,99144.78
2022-08-03T15:08:25.779Z,99147.41
2022-08-03T15:10:56.455Z,99151.44
2022-08-03T15:13:25.624Z,99143.38
2022-08-03T15:15:52.828Z,99153.22
2022-08-03T15:18:24.920Z,99142.31
2022-08-03T15:20:52.349Z,99141.38
2022-08-03T15:23:20.219Z,99145.66
2022-08-03T15:26:29.356Z,99144.53
2022-08-03T15:28:37.315Z,99133.25
2022-08-03T15:31:05.903Z,99141.78
2022-08-03T15:33:33.340Z,99142.09
2022-08-03T15:36:03.524Z,99132.00
2022-08-03T15:38:30.822Z,99137.53
2022-08-03T15:40:59.133Z,99128.03
2022-08-03T15:43:26.587Z,99141.78
2022-08-03T15:48:42.151Z,99118.41
2022-08-03T15:51:10.379Z,99133.97
2022-08-03T15:53:38.481Z,99129.28
2022-08-03T15:56:11.324Z,99127.88
2022-08-03T15:59:03.758Z,99139.41
2022-08-03T16:01:28.954Z,99134.31
2022-08-03T16:03:56.385Z,99137.97
2022-08-03T16:06:29.833Z,99132.28
2022-08-03T16:09:23.728Z,99128.25
2022-08-03T16:11:54.952Z,99137.03
2022-08-03T16:14:34.253Z,99127.81
2022-08-03T16:17:05.778Z,99129.78
2022-08-03T16:19:33.481Z,99136.47
2022-08-03T16:22:00.936Z,99135.19
2022-08-03T16:24:28.497Z,99143.53
2022-08-03T16:26:57.060Z,99129.91
2022-08-03T16:29:24.389Z,99130.97
2022-08-03T16:31:53.032Z,99138.31
2022-08-03T16:34:21.111Z,99136.38
2022-08-03T16:36:48.424Z,99136.72
2022-08-03T16:39:15.858Z,99137.84
2022-08-03T16:41:53.635Z,99145.88
2022-08-03T16:44:30.805Z,99139.25
2022-08-03T16:46:59.495Z,99144.09
2022-08-03T16:49:53.957Z,99137.69
2022-08-03T16:52:16.486Z,99130.50
2022-08-03T16:54:52.686Z,99132.34
2022-08-03T16:57:56.748Z,99135.78
2022-08-03T17:00:32.911Z,99135.47
2022-08-03T17:03:04.311Z,99140.78
2022-08-03T17:05:43.801Z,99140.69
2022-08-03T17:08:15.968Z,99148.63
2022-08-03T17:10:45.212Z,99150.28
2022-08-03T17:13:22.110Z,99133.06
2022-08-03T17:16:00.886Z,99075.75
2022-08-03T17:18:35.020Z,99138.34
2022-08-03T17:21:05.958Z,99145.69
2022-08-03T17:23:49.939Z,99157.59
2022-08-03T17:26:21.867Z,99154.16
2022-08-03T17:28:58.393Z,99137.13
2022-08-03T17:31:31.081Z,99148.78
2022-08-03T17:34:01.727Z,99152.41
2022-08-03T17:36:54.006Z,99134.84
2022-08-03T17:39:30.760Z,99151.81
2022-08-03T17:42:31.217Z,99155.06
2022-08-03T17:44:57.266Z,99155.00
2022-08-03T17:47:28.971Z,99144.00
2022-08-03T17:53:07.249Z,99168.56
2022-08-03T17:55:54.824Z,99172.75
2022-08-03T17:58:52.577Z,99182.38
2022-08-03T18:02:00.809Z,99184.16
2022-08-03T18:04:33.794Z,99197.31
2022-08-03T18:07:11.159Z,99188.25
2022-08-03T18:10:06.764Z,99195.09
2022-08-03T18:12:40.501Z,99188.50
2022-08-03T18:15:20.862Z,99201.03
2022-08-03T18:17:55.077Z,99202.78
2022-08-03T18:20:34.199Z,99207.75
2022-08-03T18:23:06.760Z,99205.88
2022-08-03T18:25:45.213Z,99210.34
2022-08-03T18:28:19.131Z,99208.53
2022-08-03T18:30:54.899Z,99215.97
2022-08-03T18:34:16.705Z,99220.81
2022-08-03T18:36:17.431Z,99216.91
2022-08-03T18:38:48.142Z,99222.28
2022-08-03T18:41:22.031Z,99218.75
2022-08-03T18:44:06.882Z,99228.09
2022-08-03T18:46:42.094Z,99240.38
2022-08-03T18:49:35.656Z,99231.72
2022-08-03T18:52:12.368Z,99234.28
2022-08-03T18:55:01.061Z,99236.78
2022-08-03T18:57:44.538Z,99238.88
2022-08-03T19:00:16.648Z,99243.06
2022-08-03T19:02:48.853Z,99246.81
2022-08-03T19:05:22.766Z,99249.63
2022-08-03T19:07:59.801Z,99250.94
2022-08-03T19:10:34.265Z,99240.63
2022-08-03T19:13:31.114Z,99258.31
2022-08-03T19:16:04.742Z,99247.56
2022-08-03T19:18:38.939Z,99268.00
2022-08-03T19:21:12.754Z,99248.75
2022-08-03T19:23:48.891Z,99276.13
2022-08-03T19:26:26.696Z,99264.94
2022-08-03T19:28:59.182Z,99259.28
2022-08-03T19:31:30.913Z,99266.13
2022-08-03T19:34:03.301Z,99267.34
2022-08-03T19:36:33.517Z,99272.22
2022-08-03T19:39:09.013Z,99256.59
2022-08-03T19:41:41.955Z,99285.53
2022-08-03T19:44:20.191Z,99270.75
2022-08-03T19:47:00.874Z,99276.38
2022-08-03T19:50:06.283Z,99260.69
2022-08-03T19:52:31.294Z,99279.56
2022-08-03T19:55:01.182Z,99261.91
2022-08-03T19:57:30.334Z,99278.34
2022-08-03T19:59:59.719Z,99277.97
2022-08-03T20:02:36.505Z,99272.34
2022-08-03T20:05:14.792Z,99275.97
2022-08-03T20:07:47.618Z,99266.75
2022-08-03T20:10:16.710Z,99275.56
2022-08-03T20:12:45.486Z,99270.72
2022-08-03T20:15:13.247Z,99280.34
2022-08-03T20:17:56.309Z,99279.50
2022-08-03T20:20:34.937Z,99286.31
2022-08-03T20:23:10.371Z,99273.84
2022-08-03T20:25:55.758Z,99277.88
2022-08-03T20:28:32.277Z,99273.03
2022-08-03T20:31:00.467Z,99259.38
2022-08-03T20:33:46.065Z,99277.44
2022-08-03T20:36:17.886Z,99280.22
2022-08-03T20:38:47.902Z,99284.19
2022-08-03T20:41:17.257Z,99290.59
2022-08-03T20:43:45.080Z,99279.38
2022-08-03T20:46:31.987Z,99291.38
2022-08-03T20:49:04.917Z,99270.91
2022-08-03T20:51:50.471Z,99287.34
2022-08-03T20:54:29.705Z,99277.69
2022-08-03T20:57:00.488Z,99272.78
2022-08-03T20:59:38.490Z,99295.28
2022-08-03T21:02:19.805Z,99292.44
2022-08-03T21:04:56.913Z,99294.00
2022-08-03T21:07:45.924Z,99297.19
2022-08-03T21:10:16.667Z,99281.97
2022-08-03T21:12:55.448Z,99162.19
2022-08-03T21:13:16.905Z,99287.19
2022-08-03T21:16:03.333Z,99275.03
2022-08-03T21:18:37.361Z,99282.59
2022-08-03T21:21:07.040Z,99286.56
2022-08-03T21:23:49.166Z,99290.53
2022-08-03T21:26:22.850Z,99286.16
2022-08-03T21:28:53.554Z,99274.84
2022-08-03T21:31:24.217Z,99293.28
2022-08-03T21:33:58.336Z,99311.63
2022-08-03T21:36:31.342Z,99305.19
2022-08-03T21:38:59.391Z,99255.63
2022-08-03T21:41:31.295Z,99301.03
2022-08-03T21:44:00.366Z,99309.81
2022-08-03T21:46:34.298Z,99306.53
2022-08-03T21:50:04.434Z,99307.72
2022-08-03T21:51:54.181Z,99288.31
2022-08-03T21:54:23.841Z,99309.63
2022-08-03T21:56:54.530Z,99304.41
2022-08-03T21:59:23.849Z,99312.78
2022-08-03T22:01:55.238Z,99309.59
2022-08-03T22:04:53.422Z,99233.09
2022-08-03T22:07:15.131Z,99315.91
2022-08-03T22:09:50.145Z,99318.66
2022-08-03T22:12:24.330Z,99303.78
2022-08-03T22:15:00.773Z,99306.22
2022-08-03T22:17:55.884Z,99315.34
2022-08-03T22:20:25.308Z,99320.16
2022-08-03T22:23:00.880Z,99308.53
2022-08-03T22:25:30.908Z,99318.13
2022-08-03T22:28:05.191Z,99235.13
2022-08-03T22:30:33.395Z,99324.03
2022-08-03T22:33:03.198Z,99317.19
2022-08-03T22:35:47.224Z,99323.53
2022-08-03T22:38:18.111Z,99325.88
2022-08-03T22:40:48.928Z,99313.41
2022-08-03T22:43:16.778Z,99326.66
2022-08-03T22:46:09.714Z,99327.06
2022-08-03T22:48:35.823Z,99320.22
2022-08-03T22:51:08.173Z,99325.88
2022-08-03T22:53:36.386Z,99322.22
2022-08-03T22:56:03.951Z,99321.00
2022-08-03T22:58:31.081Z,99313.34
2022-08-03T23:01:03.336Z,99312.41
2022-08-03T23:04:00.712Z,99318.50
2022-08-03T23:06:27.116Z,99302.31
2022-08-03T23:08:55.213Z,99308.03
2022-08-03T23:11:24.497Z,99306.81
2022-08-03T23:13:54.362Z,99311.06
2022-08-03T23:16:29.088Z,99303.03
2022-08-03T23:18:59.731Z,99322.97
2022-08-03T23:21:53.327Z,99314.56
2022-08-03T23:24:29.508Z,99310.06
2022-08-03T23:26:59.030Z,99310.44
2022-08-03T23:29:28.860Z,99306.78
2022-08-03T23:31:56.588Z,99275.66
2022-08-03T23:34:43.385Z,99313.88
2022-08-03T23:37:14.720Z,99302.50
2022-08-03T23:39:45.744Z,99309.22
2022-08-03T23:42:19.069Z,99298.47
2022-08-03T23:44:46.784Z,99315.66
2022-08-03T23:47:14.508Z,99308.84
2022-08-03T23:49:41.895Z,99313.94
2022-08-03T23:52:15.873Z,99301.44
2022-08-03T23:55:26.270Z,99318.22
2022-08-03T23:58:15.548Z,99321.63
